This is the latest recevied weather packets stored in our database for station/object N1MCJ. If no packets are shown the sender has not sent any weather packets the latest 1 day(s).
| Time | Temp. | Humidity | Pressure | Rain* | Wind** | Luminosity | Snow |
|---|---|---|---|---|---|---|---|
| 1778002139 | 22.78° C | 56% | 1001 hPa | 0 mm | 1.34 m/s, 131° | 109 W/m² | - |
| 1778001239 | 22.78° C | 55% | 1001.4 hPa | 0 mm | 2.68 m/s, 183° | 524 W/m² | - |
| 1778000334 | 22.78° C | 57% | 1001.4 hPa | 0 mm | 1.34 m/s, 169° | 88 W/m² | - |
| 1777999434 | 22.22° C | 58% | 1001.3 hPa | 0 mm | 0.89 m/s, 219° | 301 W/m² | - |
| 1777998529 | 22.22° C | 58% | 1001.5 hPa | 0 mm | 2.24 m/s, 263° | 69 W/m² | - |
| 1777997625 | 22.22° C | 57% | 1002.2 hPa | 0 mm | 0.89 m/s, 128° | 370 W/m² | - |
| 1777996723 | 21.67° C | 60% | 1001.9 hPa | 0 mm | 1.34 m/s, 37° | 242 W/m² | - |
| 1777995817 | 21.67° C | 61% | 1002.1 hPa | 0 mm | 1.34 m/s, 180° | 390 W/m² | - |
| 1777994914 | 21.11° C | 61% | 1002.2 hPa | 0 mm | 0.45 m/s, 100° | 66 W/m² | - |
| 1777994014 | 20.56° C | 62% | 1002.4 hPa | 0 mm | 1.34 m/s, 177° | 131 W/m² | - |
| 1777993114 | 20° C | 62% | 1002.6 hPa | 0 mm | 2.68 m/s, 233° | 68 W/m² | - |
| 1777992215 | 19.44° C | 65% | 1002.6 hPa | 0 mm | 0.89 m/s, 124° | 216 W/m² | - |
| 1777991311 | 18.89° C | 67% | 1002.7 hPa | 0 mm | 0.45 m/s, 285° | 50 W/m² | - |
| 1777990409 | 18.33° C | 69% | 1002.5 hPa | 0 mm | 1.34 m/s, 108° | 131 W/m² | - |
| 1777989506 | 17.78° C | 69% | 1002.3 hPa | 0 mm | 0.89 m/s, 164° | 72 W/m² | - |
| 1777988601 | 17.22° C | 71% | 1002.3 hPa | 0 mm | 1.34 m/s, 241° | 267 W/m² | - |
| 1777987695 | 16.67° C | 73% | 1002.4 hPa | 0 mm | 2.24 m/s, 150° | 70 W/m² | - |
| 1777986793 | 16.67° C | 75% | 1002.3 hPa | 0 mm | 0.45 m/s, 48° | 54 W/m² | - |
| 1777985891 | 16.11° C | 77% | 1002.3 hPa | 0 mm | 0.89 m/s, 37° | 171 W/m² | - |
| 1777984988 | 15° C | 82% | 1002.4 hPa | 0 mm | 0.45 m/s, 89° | 64 W/m² | - |
| 1777984088 | 14.44° C | 84% | 1002.5 hPa | 0 mm | 0.45 m/s, 70° | 56 W/m² | - |
| 1777983185 | 13.33° C | 87% | 1002.5 hPa | 0 mm | 0.45 m/s, 354° | 127 W/m² | - |
| 1777982282 | 13.33° C | 89% | 1002.7 hPa | 0 mm | 0.89 m/s, 103° | 39 W/m² | - |
| 1777981379 | 12.22° C | 91% | 1002.7 hPa | 0 mm | 0.89 m/s, 28° | 36 W/m² | - |
| 1777980480 | 11.67° C | 95% | 1002.8 hPa | 0 mm | 0.45 m/s, 7° | 35 W/m² | - |
* Rain latest hour (hover to see other rain measurements)
** Current wind speed in m/s (hover to see current wind gust speed)